createdAt,value
2018-07-07T00:00:44.417Z,20.86
2018-07-07T00:03:11.882Z,20.78
2018-07-07T00:05:39.359Z,20.71
2018-07-07T00:08:06.750Z,20.72
2018-07-07T00:10:34.304Z,20.74
2018-07-07T00:13:01.730Z,20.69
2018-07-07T00:15:29.639Z,20.68
2018-07-07T00:17:57.067Z,20.62
2018-07-07T00:20:24.464Z,20.60
2018-07-07T00:22:51.902Z,20.61
2018-07-07T00:25:19.409Z,20.63
2018-07-07T00:27:46.881Z,20.63
2018-07-07T00:30:14.330Z,20.67
2018-07-07T00:32:41.754Z,20.67
2018-07-07T00:35:09.194Z,20.54
2018-07-07T00:37:36.653Z,20.44
2018-07-07T00:40:04.106Z,20.38
2018-07-07T00:42:34.261Z,20.42
2018-07-07T00:45:01.749Z,20.40
2018-07-07T00:47:29.192Z,20.30
2018-07-07T00:49:56.666Z,20.25
2018-07-07T00:52:24.087Z,20.20
2018-07-07T00:54:51.560Z,20.17
2018-07-07T00:57:19.032Z,20.16
2018-07-07T00:59:46.516Z,20.14
2018-07-07T01:02:14.072Z,20.09
2018-07-07T01:04:41.509Z,20.10
2018-07-07T01:07:09.121Z,20.12
2018-07-07T01:09:36.592Z,20.06
2018-07-07T01:12:04.091Z,20.04
2018-07-07T01:14:31.643Z,20.00
2018-07-07T01:16:59.104Z,20.01
2018-07-07T01:19:26.536Z,20.01
2018-07-07T01:21:53.954Z,20.01
2018-07-07T01:24:21.421Z,20.01
2018-07-07T01:26:48.898Z,19.99
2018-07-07T01:29:16.302Z,19.94
2018-07-07T01:31:43.743Z,19.92
2018-07-07T01:34:11.177Z,19.91
2018-07-07T01:36:38.598Z,19.86
2018-07-07T01:39:06.055Z,19.83
2018-07-07T01:41:33.529Z,19.89
2018-07-07T01:44:00.971Z,19.85
2018-07-07T01:46:28.538Z,19.80
2018-07-07T01:48:55.932Z,19.77
2018-07-07T01:51:23.419Z,19.75
2018-07-07T01:53:50.822Z,19.80
2018-07-07T01:56:18.339Z,19.79
2018-07-07T01:58:45.805Z,19.84
2018-07-07T02:01:13.294Z,19.88
2018-07-07T02:03:40.737Z,19.90
2018-07-07T02:06:09.379Z,19.92
2018-07-07T02:08:36.881Z,19.81
2018-07-07T02:11:04.324Z,19.80
2018-07-07T02:13:32.063Z,19.83
2018-07-07T02:15:59.461Z,19.87
2018-07-07T02:18:26.895Z,19.87
2018-07-07T02:20:54.530Z,19.71
2018-07-07T02:23:21.959Z,19.67
2018-07-07T02:25:49.387Z,19.61
2018-07-07T02:28:16.843Z,19.59
2018-07-07T02:30:44.439Z,19.54
2018-07-07T02:33:11.858Z,19.47
2018-07-07T02:35:39.272Z,19.45
2018-07-07T02:38:06.796Z,19.45
2018-07-07T02:40:34.298Z,19.43
2018-07-07T02:43:01.757Z,19.46
2018-07-07T02:45:29.255Z,19.54
2018-07-07T02:47:56.732Z,19.57
2018-07-07T02:50:24.169Z,19.58
2018-07-07T02:52:51.715Z,19.58
2018-07-07T02:55:19.140Z,19.56
2018-07-07T02:57:46.587Z,19.48
2018-07-07T03:00:14.012Z,19.38
2018-07-07T03:02:41.574Z,19.19
2018-07-07T03:05:09.037Z,19.13
2018-07-07T03:07:36.701Z,19.10
2018-07-07T03:10:04.145Z,19.04
2018-07-07T03:12:31.610Z,19.01
2018-07-07T03:14:59.037Z,18.97
2018-07-07T03:17:26.523Z,18.94
2018-07-07T03:19:53.955Z,18.99
2018-07-07T03:22:21.430Z,18.98
2018-07-07T03:24:48.898Z,18.96
2018-07-07T03:27:16.344Z,18.93
2018-07-07T03:29:43.779Z,19.04
2018-07-07T03:32:11.226Z,19.07
2018-07-07T03:34:38.655Z,19.09
2018-07-07T03:37:06.112Z,19.13
2018-07-07T03:39:33.558Z,19.07
2018-07-07T03:42:01.026Z,19.12
2018-07-07T03:44:28.507Z,19.15
2018-07-07T03:46:55.940Z,19.11
2018-07-07T03:49:23.374Z,19.12
2018-07-07T03:51:50.800Z,19.09
2018-07-07T03:54:18.193Z,19.10
2018-07-07T03:56:45.699Z,19.11
2018-07-07T03:59:13.195Z,19.13
2018-07-07T04:01:40.806Z,19.15
2018-07-07T04:04:08.238Z,19.05
2018-07-07T04:06:35.708Z,19.00
2018-07-07T04:09:03.308Z,18.97
2018-07-07T04:11:30.745Z,18.92
2018-07-07T04:13:58.186Z,18.90
2018-07-07T04:16:25.721Z,18.94
2018-07-07T04:18:53.210Z,18.93
2018-07-07T04:21:20.618Z,18.99
2018-07-07T04:23:48.107Z,19.09
2018-07-07T04:26:15.515Z,19.19
2018-07-07T04:28:42.952Z,19.30
2018-07-07T04:31:10.431Z,19.35
2018-07-07T04:33:37.864Z,19.31
2018-07-07T04:36:05.298Z,19.28
2018-07-07T04:38:32.739Z,19.27
2018-07-07T04:41:00.182Z,19.27
2018-07-07T04:43:27.661Z,19.37
2018-07-07T04:45:55.445Z,19.45
2018-07-07T04:48:22.881Z,19.52
2018-07-07T04:50:50.342Z,19.68
2018-07-07T04:53:17.839Z,19.88
2018-07-07T04:55:45.470Z,20.01
2018-07-07T04:58:13.015Z,20.13
2018-07-07T05:00:40.442Z,20.24
2018-07-07T05:03:08.011Z,20.23
2018-07-07T05:05:35.494Z,20.25
2018-07-07T05:08:02.964Z,20.34
2018-07-07T05:10:30.370Z,20.32
2018-07-07T05:12:57.835Z,20.57
2018-07-07T05:15:25.395Z,20.68
2018-07-07T05:17:53.009Z,20.75
2018-07-07T05:20:20.443Z,20.80
2018-07-07T05:22:47.886Z,20.85
2018-07-07T05:25:15.391Z,20.89
2018-07-07T05:27:42.805Z,20.86
2018-07-07T05:30:10.281Z,20.81
2018-07-07T05:32:37.715Z,20.68
2018-07-07T05:35:05.177Z,20.69
2018-07-07T05:37:32.669Z,20.82
2018-07-07T05:40:00.089Z,21.01
2018-07-07T05:42:27.561Z,21.25
2018-07-07T05:44:55.022Z,21.61
2018-07-07T05:47:22.450Z,21.81
2018-07-07T05:49:49.959Z,21.94
2018-07-07T05:52:17.493Z,21.93
2018-07-07T05:54:44.927Z,21.75
2018-07-07T05:57:12.406Z,21.57
2018-07-07T05:59:39.943Z,21.41
2018-07-07T06:02:07.428Z,21.32
2018-07-07T06:04:34.884Z,21.49
2018-07-07T06:07:02.372Z,21.51
2018-07-07T06:09:29.818Z,21.56
2018-07-07T06:11:57.308Z,21.63
2018-07-07T06:14:24.849Z,21.87
2018-07-07T06:16:52.292Z,21.76
2018-07-07T06:19:19.721Z,21.55
2018-07-07T06:21:47.172Z,21.43
2018-07-07T06:24:14.714Z,21.52
2018-07-07T06:26:42.214Z,21.57
2018-07-07T06:29:09.594Z,21.78
2018-07-07T06:31:37.069Z,21.55
2018-07-07T06:34:04.516Z,21.71
2018-07-07T06:36:32.009Z,21.61
2018-07-07T06:38:59.482Z,21.91
2018-07-07T06:41:26.920Z,21.99
2018-07-07T06:43:54.483Z,21.83
2018-07-07T06:46:21.953Z,21.97
2018-07-07T06:48:49.432Z,22.19
2018-07-07T06:51:16.883Z,22.39
2018-07-07T06:53:44.357Z,22.31
2018-07-07T06:56:11.839Z,22.38
2018-07-07T06:58:39.338Z,22.58
2018-07-07T07:01:06.794Z,22.77
2018-07-07T07:03:34.272Z,22.79
2018-07-07T07:06:01.724Z,22.95
2018-07-07T07:08:29.224Z,22.93
2018-07-07T07:10:56.833Z,22.58
2018-07-07T07:13:24.336Z,22.43
2018-07-07T07:15:52.456Z,22.45
2018-07-07T07:18:19.941Z,22.71
2018-07-07T07:20:47.399Z,22.94
2018-07-07T07:23:14.849Z,23.07
2018-07-07T07:25:42.282Z,23.54
2018-07-07T07:28:09.790Z,23.78
2018-07-07T07:30:37.250Z,24.00
2018-07-07T07:33:04.781Z,24.15
2018-07-07T07:35:32.224Z,24.40
2018-07-07T07:37:59.769Z,24.60
2018-07-07T07:40:27.247Z,24.52
2018-07-07T07:42:55.016Z,24.55
2018-07-07T07:45:22.458Z,24.48
2018-07-07T07:47:49.846Z,24.68
2018-07-07T07:50:17.291Z,24.96
2018-07-07T07:52:44.764Z,25.12
2018-07-07T07:55:12.248Z,25.14
2018-07-07T07:57:39.701Z,25.37
2018-07-07T08:00:07.190Z,25.48
2018-07-07T08:02:34.671Z,25.43
2018-07-07T08:05:02.246Z,25.19
2018-07-07T08:07:29.659Z,25.58
2018-07-07T08:09:57.096Z,25.72
2018-07-07T08:12:24.729Z,25.87
2018-07-07T08:14:52.199Z,25.82
2018-07-07T08:17:19.791Z,25.79
2018-07-07T08:19:47.404Z,25.63
2018-07-07T08:22:14.888Z,25.59
2018-07-07T08:24:42.476Z,25.51
2018-07-07T08:27:10.053Z,25.66
2018-07-07T08:29:37.479Z,25.62
2018-07-07T08:32:05.048Z,26.01
2018-07-07T08:34:32.551Z,26.38
2018-07-07T08:37:00.016Z,26.44
2018-07-07T08:39:28.478Z,26.56
2018-07-07T08:41:55.969Z,26.55
2018-07-07T08:44:23.358Z,26.20
2018-07-07T08:46:50.851Z,26.06
2018-07-07T08:49:18.317Z,25.94
2018-07-07T08:51:45.744Z,26.04
2018-07-07T08:54:13.675Z,25.89
2018-07-07T08:56:41.146Z,26.29
2018-07-07T08:59:08.645Z,26.58
2018-07-07T09:01:36.695Z,26.64
2018-07-07T09:04:04.238Z,26.74
2018-07-07T09:06:31.738Z,26.66
2018-07-07T09:08:59.253Z,26.62
2018-07-07T09:11:26.743Z,26.55
2018-07-07T09:13:54.202Z,26.64
2018-07-07T09:16:21.630Z,26.61
2018-07-07T09:18:49.084Z,26.90
2018-07-07T09:21:16.534Z,27.00
2018-07-07T09:23:44.014Z,27.17
2018-07-07T09:26:11.472Z,27.33
2018-07-07T09:28:38.999Z,27.48
2018-07-07T09:31:06.495Z,27.51
2018-07-07T09:33:34.262Z,27.82
2018-07-07T09:36:01.767Z,28.28
2018-07-07T09:38:28.919Z,28.44
2018-07-07T09:40:55.919Z,28.29
2018-07-07T09:43:22.910Z,28.47
2018-07-07T09:45:49.884Z,28.35
2018-07-07T09:48:16.890Z,28.62
2018-07-07T09:50:43.953Z,28.56
2018-07-07T09:53:11.114Z,28.56
2018-07-07T09:58:19.934Z,28.72
2018-07-07T10:00:46.936Z,28.69
2018-07-07T10:03:13.883Z,28.86
2018-07-07T10:05:40.886Z,29.00
2018-07-07T10:08:07.915Z,28.93
2018-07-07T10:10:35.385Z,29.00
2018-07-07T10:13:02.842Z,29.08
2018-07-07T10:15:30.431Z,29.14
2018-07-07T10:17:57.422Z,29.08
2018-07-07T10:20:24.896Z,29.01
2018-07-07T10:22:52.337Z,28.90
2018-07-07T10:25:19.884Z,29.11
2018-07-07T10:27:47.371Z,28.88
2018-07-07T10:30:14.886Z,28.95
2018-07-07T10:32:41.874Z,29.21
2018-07-07T10:35:09.367Z,29.27
2018-07-07T10:37:36.807Z,29.32
2018-07-07T10:40:04.255Z,29.43
2018-07-07T10:42:31.265Z,29.61
2018-07-07T10:44:58.287Z,29.53
2018-07-07T10:47:25.341Z,29.50
2018-07-07T10:49:52.796Z,29.64
2018-07-07T10:52:19.875Z,29.48
2018-07-07T10:54:46.825Z,29.33
2018-07-07T10:57:14.094Z,29.52
2018-07-07T10:59:41.063Z,29.60
2018-07-07T11:02:08.005Z,29.72
2018-07-07T11:04:35.483Z,30.00
2018-07-07T11:07:02.457Z,29.82
2018-07-07T11:09:29.418Z,29.84
2018-07-07T11:11:56.506Z,29.61
2018-07-07T11:14:23.442Z,29.58
2018-07-07T11:16:50.386Z,29.43
2018-07-07T11:19:17.798Z,29.39
2018-07-07T11:21:44.782Z,29.50
2018-07-07T11:24:11.714Z,29.53
2018-07-07T11:26:38.761Z,29.70
2018-07-07T11:29:05.790Z,29.64
2018-07-07T11:31:32.766Z,29.50
2018-07-07T11:33:59.878Z,29.56
2018-07-07T11:36:26.988Z,29.64
2018-07-07T11:38:53.912Z,29.79
2018-07-07T11:41:21.017Z,29.97
2018-07-07T11:43:48.001Z,29.64
2018-07-07T11:46:15.014Z,29.48
2018-07-07T11:48:41.996Z,29.60
2018-07-07T11:51:08.986Z,29.75
2018-07-07T11:53:36.000Z,29.84
2018-07-07T11:56:02.974Z,29.84
2018-07-07T11:58:30.187Z,29.76
2018-07-07T12:00:57.236Z,29.78
2018-07-07T12:03:24.245Z,29.86
2018-07-07T12:05:51.349Z,29.84
2018-07-07T12:08:18.463Z,29.91
2018-07-07T12:10:45.447Z,30.22
2018-07-07T12:13:12.430Z,30.44
2018-07-07T12:15:39.411Z,30.61
2018-07-07T12:18:06.886Z,30.74
2018-07-07T12:20:34.042Z,30.93
2018-07-07T12:23:01.053Z,31.01
2018-07-07T12:25:28.158Z,30.68
2018-07-07T12:27:55.142Z,30.73
2018-07-07T12:30:22.304Z,30.53
2018-07-07T12:32:49.336Z,30.47
2018-07-07T12:35:16.349Z,30.63
2018-07-07T12:37:43.309Z,30.50
2018-07-07T12:40:10.335Z,30.48
2018-07-07T12:42:38.356Z,30.55
2018-07-07T12:45:05.347Z,30.66
2018-07-07T12:47:32.447Z,30.60
2018-07-07T12:49:59.396Z,30.51
2018-07-07T12:52:26.609Z,30.68
2018-07-07T12:54:53.599Z,30.64
2018-07-07T12:57:21.303Z,30.75
2018-07-07T12:59:48.769Z,30.63
2018-07-07T13:02:16.302Z,30.49
2018-07-07T13:04:43.796Z,30.64
2018-07-07T13:07:11.464Z,30.59
2018-07-07T13:09:38.903Z,30.68
2018-07-07T13:12:06.354Z,30.62
2018-07-07T13:14:34.737Z,30.65
2018-07-07T13:17:02.278Z,30.89
2018-07-07T13:19:29.794Z,31.21
2018-07-07T13:21:57.315Z,31.23
2018-07-07T13:24:24.786Z,31.09
2018-07-07T13:26:52.387Z,30.91
2018-07-07T13:29:19.988Z,30.91
2018-07-07T13:31:47.448Z,30.59
2018-07-07T13:34:14.905Z,30.58
2018-07-07T13:36:42.413Z,30.50
2018-07-07T13:39:09.822Z,30.50
2018-07-07T13:41:37.283Z,30.51
2018-07-07T13:44:04.772Z,30.60
2018-07-07T13:46:32.168Z,30.82
2018-07-07T13:48:59.671Z,30.90
2018-07-07T13:51:27.104Z,30.83
2018-07-07T13:53:54.548Z,30.87
2018-07-07T13:56:22.008Z,30.81
2018-07-07T13:58:49.491Z,30.74
2018-07-07T14:01:16.939Z,30.77
2018-07-07T14:03:44.332Z,30.66
2018-07-07T14:06:11.750Z,30.60
2018-07-07T14:08:39.262Z,30.63
2018-07-07T14:11:06.792Z,30.71
2018-07-07T14:16:08.030Z,30.85
2018-07-07T14:18:35.500Z,30.70
2018-07-07T14:21:02.971Z,30.93
2018-07-07T14:23:30.548Z,30.96
2018-07-07T14:25:58.036Z,30.94
2018-07-07T14:28:25.463Z,30.84
2018-07-07T14:30:52.933Z,30.89
2018-07-07T14:33:20.385Z,30.88
2018-07-07T14:35:47.812Z,30.74
2018-07-07T14:38:15.302Z,30.81
2018-07-07T14:40:42.751Z,30.71
2018-07-07T14:43:10.213Z,30.62
2018-07-07T14:45:37.610Z,30.48
2018-07-07T14:48:05.124Z,30.41
2018-07-07T14:50:32.599Z,30.44
2018-07-07T14:53:00.238Z,30.31
2018-07-07T14:55:27.720Z,30.32
2018-07-07T14:57:55.201Z,30.24
2018-07-07T15:00:22.612Z,30.18
2018-07-07T15:02:50.043Z,30.10
2018-07-07T15:05:17.656Z,30.14
2018-07-07T15:07:45.127Z,30.18
2018-07-07T15:10:12.588Z,30.24
2018-07-07T15:12:40.038Z,30.01
2018-07-07T15:15:07.538Z,29.97
2018-07-07T15:17:35.039Z,29.98
2018-07-07T15:20:02.571Z,30.11
2018-07-07T15:22:30.142Z,30.06
2018-07-07T15:24:57.538Z,30.24
2018-07-07T15:27:25.003Z,30.30
2018-07-07T15:29:52.440Z,30.25
2018-07-07T15:32:19.975Z,29.97
2018-07-07T15:34:47.478Z,30.04
2018-07-07T15:37:14.976Z,30.13
2018-07-07T15:39:42.549Z,30.10
2018-07-07T15:42:10.039Z,30.09
2018-07-07T15:44:37.479Z,30.02
2018-07-07T15:47:04.877Z,30.06
2018-07-07T15:49:32.356Z,30.10
2018-07-07T15:51:59.840Z,30.09
2018-07-07T15:54:27.315Z,29.90
2018-07-07T15:56:54.740Z,29.85
2018-07-07T15:59:22.253Z,29.83
2018-07-07T16:01:49.691Z,29.71
2018-07-07T16:04:17.126Z,29.63
2018-07-07T16:06:44.659Z,29.66
2018-07-07T16:09:12.093Z,29.63
2018-07-07T16:11:39.595Z,29.62
2018-07-07T16:14:07.040Z,29.58
2018-07-07T16:16:34.880Z,29.54
2018-07-07T16:19:02.372Z,29.45
2018-07-07T16:21:29.856Z,29.45
2018-07-07T16:23:57.266Z,29.44
2018-07-07T16:26:24.722Z,29.39
2018-07-07T16:28:52.180Z,29.42
2018-07-07T16:31:19.708Z,29.46
2018-07-07T16:33:47.157Z,29.42
2018-07-07T16:36:14.600Z,29.42
2018-07-07T16:38:42.090Z,29.41
2018-07-07T16:41:09.487Z,29.38
2018-07-07T16:43:36.990Z,29.45
2018-07-07T16:46:04.493Z,29.39
2018-07-07T16:48:31.955Z,29.36
2018-07-07T16:50:59.508Z,29.29
2018-07-07T16:53:26.930Z,29.28
2018-07-07T16:55:54.380Z,29.31
2018-07-07T16:58:21.853Z,29.20
2018-07-07T17:00:49.346Z,29.25
2018-07-07T17:03:16.987Z,29.21
2018-07-07T17:05:44.444Z,29.22
2018-07-07T17:08:12.003Z,29.17
2018-07-07T17:10:39.503Z,29.13
2018-07-07T17:13:07.054Z,29.09
2018-07-07T17:15:34.596Z,29.20
2018-07-07T17:18:02.100Z,29.22
2018-07-07T17:20:29.571Z,29.15
2018-07-07T17:22:57.047Z,29.13
2018-07-07T17:25:24.526Z,29.11
2018-07-07T17:27:52.041Z,28.97
2018-07-07T17:30:19.593Z,28.93
2018-07-07T17:32:47.019Z,28.96
2018-07-07T17:35:14.508Z,28.98
2018-07-07T17:37:41.960Z,29.03
2018-07-07T17:40:09.388Z,29.04
2018-07-07T17:42:36.869Z,29.02
2018-07-07T17:45:04.606Z,28.98
2018-07-07T17:47:33.070Z,28.90
2018-07-07T17:50:00.539Z,28.91
2018-07-07T17:52:27.976Z,28.87
2018-07-07T17:54:55.602Z,28.84
2018-07-07T17:57:23.081Z,28.75
2018-07-07T17:59:50.574Z,28.76
2018-07-07T18:02:18.034Z,28.80
2018-07-07T18:04:45.468Z,28.80
2018-07-07T18:07:12.977Z,28.63
2018-07-07T18:09:40.407Z,28.54
2018-07-07T18:12:07.886Z,28.54
2018-07-07T18:14:35.444Z,28.37
2018-07-07T18:17:02.938Z,28.22
2018-07-07T18:19:30.404Z,28.13
2018-07-07T18:21:58.081Z,28.09
2018-07-07T18:24:25.526Z,28.11
2018-07-07T18:26:53.016Z,28.00
2018-07-07T18:29:21.201Z,27.86
2018-07-07T18:31:48.704Z,27.70
2018-07-07T18:34:16.140Z,27.60
2018-07-07T18:36:43.623Z,27.49
2018-07-07T18:39:11.268Z,27.42
2018-07-07T18:41:38.681Z,27.37
2018-07-07T18:44:06.156Z,27.20
2018-07-07T18:46:33.614Z,27.12
2018-07-07T18:49:01.583Z,26.96
2018-07-07T18:51:29.101Z,26.78
2018-07-07T18:53:56.606Z,26.59
2018-07-07T18:56:24.143Z,26.39
2018-07-07T18:58:51.923Z,26.24
2018-07-07T19:01:19.401Z,26.06
2018-07-07T19:03:46.853Z,25.95
2018-07-07T19:06:14.278Z,25.90
2018-07-07T19:08:41.691Z,25.85
2018-07-07T19:11:09.175Z,25.82
2018-07-07T19:13:36.641Z,25.79
2018-07-07T19:16:04.130Z,25.78
2018-07-07T19:18:31.662Z,25.78
2018-07-07T19:20:59.249Z,25.77
2018-07-07T19:26:35.345Z,25.88
2018-07-07T19:29:03.039Z,25.69
2018-07-07T19:31:30.533Z,25.55
2018-07-07T19:36:58.483Z,25.46
2018-07-07T19:39:25.954Z,25.34
2018-07-07T19:41:53.350Z,25.23
2018-07-07T19:44:20.877Z,25.10
2018-07-07T19:46:48.339Z,24.99
2018-07-07T19:49:16.041Z,24.96
2018-07-07T19:51:43.782Z,24.96
2018-07-07T19:54:11.259Z,24.91
2018-07-07T19:56:38.740Z,24.89
2018-07-07T19:59:06.169Z,24.89
2018-07-07T20:01:33.646Z,24.88
2018-07-07T20:04:01.072Z,24.85
2018-07-07T20:06:28.482Z,24.80
2018-07-07T20:08:55.954Z,24.76
2018-07-07T20:11:23.396Z,24.77
2018-07-07T20:13:50.844Z,24.71
2018-07-07T20:16:18.331Z,24.70
2018-07-07T20:18:45.800Z,24.66
2018-07-07T20:24:25.893Z,24.84
2018-07-07T20:26:53.269Z,24.82
2018-07-07T20:29:21.295Z,24.78
2018-07-07T20:31:48.776Z,24.74
2018-07-07T20:34:16.228Z,24.72
2018-07-07T20:36:43.688Z,24.67
2018-07-07T20:39:11.137Z,24.66
2018-07-07T20:41:38.537Z,24.60
2018-07-07T20:44:05.950Z,24.58
2018-07-07T20:46:33.392Z,24.52
2018-07-07T20:49:00.797Z,24.52
2018-07-07T20:51:28.288Z,24.54
2018-07-07T20:53:55.784Z,24.54
2018-07-07T20:56:23.192Z,24.50
2018-07-07T20:58:50.675Z,24.50
2018-07-07T21:01:18.183Z,24.46
2018-07-07T21:03:45.753Z,24.43
2018-07-07T21:06:13.167Z,24.40
2018-07-07T21:08:40.621Z,24.34
2018-07-07T21:11:08.144Z,24.27
2018-07-07T21:13:35.598Z,24.22
2018-07-07T21:16:03.014Z,24.17
2018-07-07T21:18:30.613Z,24.14
2018-07-07T21:20:58.054Z,24.07
2018-07-07T21:23:26.639Z,24.07
2018-07-07T21:25:54.039Z,24.11
2018-07-07T21:28:21.513Z,24.06
2018-07-07T21:30:49.008Z,24.07
2018-07-07T21:33:16.491Z,24.04
2018-07-07T21:35:44.019Z,24.02
2018-07-07T21:38:11.457Z,23.97
2018-07-07T21:40:38.915Z,23.94
2018-07-07T21:43:06.712Z,23.89
2018-07-07T21:45:34.142Z,23.89
2018-07-07T21:48:02.118Z,23.89
2018-07-07T21:50:29.570Z,23.89
2018-07-07T21:52:57.044Z,23.92
2018-07-07T21:55:24.556Z,23.91
2018-07-07T21:57:52.152Z,23.89
2018-07-07T22:00:19.658Z,23.86
2018-07-07T22:05:39.332Z,24.01
2018-07-07T22:08:06.954Z,23.99
2018-07-07T22:10:34.413Z,23.87
2018-07-07T22:13:01.925Z,23.87
2018-07-07T22:15:29.420Z,23.81
2018-07-07T22:17:56.953Z,23.81
2018-07-07T22:20:24.620Z,23.82
2018-07-07T22:22:52.038Z,23.85
2018-07-07T22:25:19.525Z,23.84
2018-07-07T22:27:46.994Z,23.81
2018-07-07T22:30:14.442Z,23.79
2018-07-07T22:32:42.081Z,23.74
2018-07-07T22:35:09.590Z,23.67
2018-07-07T22:37:37.290Z,23.57
2018-07-07T22:40:04.710Z,23.53
2018-07-07T22:42:32.220Z,23.50
2018-07-07T22:44:59.660Z,23.48
2018-07-07T22:47:27.189Z,23.43
2018-07-07T22:49:54.655Z,23.39
2018-07-07T22:52:22.139Z,23.36
2018-07-07T22:54:49.666Z,23.35
2018-07-07T22:57:17.134Z,23.26
2018-07-07T22:59:44.631Z,23.23
2018-07-07T23:02:12.095Z,23.25
2018-07-07T23:04:39.565Z,23.18
2018-07-07T23:07:06.991Z,23.16
2018-07-07T23:09:34.811Z,23.14
2018-07-07T23:12:02.277Z,23.07
2018-07-07T23:14:29.765Z,22.97
2018-07-07T23:16:57.214Z,22.91
2018-07-07T23:19:24.643Z,22.90
2018-07-07T23:21:52.113Z,22.91
2018-07-07T23:24:19.560Z,22.98
2018-07-07T23:26:47.080Z,23.02
2018-07-07T23:29:14.536Z,23.09
2018-07-07T23:31:41.935Z,23.12
2018-07-07T23:34:09.422Z,22.98
2018-07-07T23:36:36.909Z,22.93
2018-07-07T23:39:04.308Z,22.82
2018-07-07T23:41:31.744Z,22.77
2018-07-07T23:43:59.195Z,22.72
2018-07-07T23:46:26.627Z,22.58
2018-07-07T23:48:54.098Z,22.52
2018-07-07T23:51:21.583Z,22.50
2018-07-07T23:53:49.064Z,22.38
2018-07-07T23:56:16.535Z,22.30
2018-07-07T23:58:43.944Z,22.26
